Time;durP1;ratioP1;P1;durP2;ratioP2;P2;SDS_P1;SDS_P2;PMS_P1;PMS_P2;Temp;Humidity;BMP_temperature;BMP_pressure;BME280_temperature;BME280_humidity;BME280_pressure;Samples;Min_cycle;Max_cycle;Signal;HPM_P1;HPM_P2
2021/04/07 00:00:45;;;;;;;19.58;8.75;;;;;;;6.35;81.29;97787.97;3549826;27;20078;-56
2021/04/07 00:02:26;;;;;;;13.95;5.85;;;;;;;6.35;81.21;97782.81;3551879;27;20047;-57
2021/04/07 00:04:08;;;;;;;10.85;5.65;;;;;;;6.36;80.78;97781.06;3548319;27;20054;-57
2021/04/07 00:05:49;;;;;;;13.55;6.50;;;;;;;6.38;81.18;97784.50;3550990;27;20051;-57
2021/04/07 00:07:30;;;;;;;13.35;6.05;;;;;;;6.37;81.39;97788.81;3549648;27;20103;-57
2021/04/07 00:09:12;;;;;;;21.70;9.23;;;;;;;6.36;81.42;97779.34;3549455;27;20070;-56
2021/04/07 00:10:54;;;;;;;13.15;7.93;;;;;;;6.36;81.28;97775.94;3551660;27;20418;-56
2021/04/07 00:12:35;;;;;;;12.57;6.28;;;;;;;6.36;81.45;97774.19;3550489;27;20561;-56
2021/04/07 00:14:17;;;;;;;11.95;6.07;;;;;;;6.37;81.51;97780.22;3552981;27;20058;-57
2021/04/07 00:15:58;;;;;;;9.63;6.07;;;;;;;6.39;81.44;97781.09;3550687;27;20043;-55
2021/04/07 00:17:39;;;;;;;14.40;6.78;;;;;;;6.41;81.04;97779.38;3553565;27;20247;-56
2021/04/07 00:19:21;;;;;;;9.68;6.22;;;;;;;6.41;81.24;97781.94;3551762;27;20045;-57
2021/04/07 00:21:03;;;;;;;15.93;5.82;;;;;;;6.43;81.02;97780.22;3550929;27;20075;-56
2021/04/07 00:22:45;;;;;;;17.02;7.90;;;;;;;6.43;81.42;97783.63;3554444;27;20042;-56
2021/04/07 00:24:27;;;;;;;12.93;7.38;;;;;;;6.45;81.62;97784.53;3550495;27;20571;-55
2021/04/07 00:26:08;;;;;;;14.88;7.18;;;;;;;6.42;81.50;97776.78;3554269;27;20047;-56
2021/04/07 00:27:55;;;;;;;16.75;7.60;;;;;;;6.42;81.42;97776.78;3551035;27;20050;-57
2021/04/07 00:29:37;;;;;;;11.77;6.57;;;;;;;6.43;81.84;97777.63;3553173;27;20073;-48
2021/04/07 00:31:18;;;;;;;15.85;8.15;;;;;;;6.43;81.71;97780.22;3552017;27;20495;-48
2021/04/07 00:33:00;;;;;;;16.08;8.00;;;;;;;6.42;81.88;97775.94;3553042;27;20046;-48
2021/04/07 00:34:43;;;;;;;10.13;6.70;;;;;;;6.41;81.72;97775.06;3553131;27;20464;-48
2021/04/07 00:36:24;;;;;;;13.65;7.38;;;;;;;6.40;82.06;97778.50;3550310;27;20050;-48
2021/04/07 00:38:05;;;;;;;14.57;8.25;;;;;;;6.39;82.32;97770.78;3554094;27;20051;-49
2021/04/07 00:39:47;;;;;;;19.38;8.80;;;;;;;6.37;82.57;97767.34;3551228;27;20046;-48
2021/04/07 00:41:28;;;;;;;14.15;7.18;;;;;;;6.35;82.44;97769.03;3552375;27;20054;-47
2021/04/07 00:43:10;;;;;;;16.33;8.13;;;;;;;6.32;82.23;97770.78;3552156;27;20050;-48
2021/04/07 00:44:52;;;;;;;13.50;7.13;;;;;;;6.31;82.70;97763.03;3551685;27;20070;-47
2021/04/07 00:46:34;;;;;;;9.50;5.20;;;;;;;6.31;82.03;97771.66;3566117;27;20084;-48
2021/04/07 00:48:17;;;;;;;12.20;6.13;;;;;;;6.31;82.31;97769.06;3557445;27;20046;-49
2021/04/07 00:50:00;;;;;;;12.80;7.15;;;;;;;6.33;82.37;97774.22;3554203;27;20051;-49
2021/04/07 00:51:44;;;;;;;10.88;6.68;;;;;;;6.36;82.08;97775.94;3552790;27;20106;-57
2021/04/07 00:53:25;;;;;;;11.73;6.72;;;;;;;6.36;82.72;97779.34;3552316;27;20067;-57
2021/04/07 00:55:08;;;;;;;15.23;9.20;;;;;;;6.34;81.49;97786.22;3554087;27;20046;-58
2021/04/07 00:56:51;;;;;;;19.10;11.07;;;;;;;6.18;81.53;97785.38;3550817;27;20055;-58
2021/04/07 00:58:32;;;;;;;22.65;11.98;;;;;;;6.04;81.82;97787.91;3553941;27;20073;-58
2021/04/07 01:00:15;;;;;;;19.42;11.77;;;;;;;5.88;82.07;97787.03;3550062;27;20499;-58
2021/04/07 01:01:56;;;;;;;24.23;13.57;;;;;;;5.75;82.78;97786.16;3554169;27;20061;-48
2021/04/07 01:03:38;;;;;;;22.48;13.13;;;;;;;5.58;82.92;97789.56;3550051;27;20511;-48
2021/04/07 01:05:20;;;;;;;18.60;12.38;;;;;;;5.44;82.86;97792.91;3551551;27;20042;-48
2021/04/07 01:07:02;;;;;;;21.70;13.15;;;;;;;5.31;84.18;97794.59;3552241;27;20522;-48
2021/04/07 01:08:44;;;;;;;17.98;10.25;;;;;;;5.18;84.27;97796.25;3550571;27;20474;-57
2021/04/07 01:10:27;;;;;;;17.00;10.27;;;;;;;5.07;84.66;97803.03;3539685;28;20055;-57
2021/04/07 01:12:08;;;;;;;23.15;11.85;;;;;;;4.97;85.53;97797.00;3548703;27;20164;-57
2021/04/07 01:13:50;;;;;;;19.42;11.55;;;;;;;4.88;85.74;97803.78;3552318;27;20074;-58
2021/04/07 01:15:32;;;;;;;23.02;13.05;;;;;;;4.82;86.04;97798.63;3549405;27;20115;-57
2021/04/07 01:17:13;;;;;;;21.88;12.77;;;;;;;4.76;86.12;97797.75;3551733;27;20050;-57
2021/04/07 01:18:54;;;;;;;16.92;10.73;;;;;;;4.72;85.98;97806.25;3553750;27;20300;-49
2021/04/07 01:20:37;;;;;;;21.27;12.60;;;;;;;4.69;86.88;97803.69;3551465;27;20057;-56
2021/04/07 01:22:21;;;;;;;19.77;12.75;;;;;;;4.64;87.09;97804.50;3538787;27;20059;-57
2021/04/07 01:24:04;;;;;;;18.35;10.50;;;;;;;4.59;87.18;97807.03;3546828;27;20525;-57
2021/04/07 01:25:45;;;;;;;19.10;11.98;;;;;;;4.53;87.28;97806.97;3553098;27;20124;-57
2021/04/07 01:27:27;;;;;;;16.67;10.70;;;;;;;4.48;87.45;97809.53;3551288;27;20043;-57
2021/04/07 01:29:08;;;;;;;19.95;12.52;;;;;;;4.46;87.58;97812.91;3551209;27;20050;-57
2021/04/07 01:30:49;;;;;;;20.05;11.38;;;;;;;4.43;88.13;97811.19;3552807;27;20051;-57
2021/04/07 01:32:30;;;;;;;14.23;9.07;;;;;;;4.38;87.57;97795.75;3549888;27;20144;-48
2021/04/07 01:34:20;;;;;;;18.67;10.45;;;;;;;4.34;87.73;97806.84;3553474;27;20043;-48
2021/04/07 01:36:02;;;;;;;17.42;11.27;;;;;;;4.31;88.16;97803.41;3549470;27;20038;-49
2021/04/07 01:37:44;;;;;;;14.02;8.60;;;;;;;4.29;88.12;97799.97;3553129;27;20075;-49
2021/04/07 01:39:27;;;;;;;16.35;10.07;;;;;;;4.25;87.65;97799.06;3550481;27;20047;-49
2021/04/07 01:41:10;;;;;;;15.02;8.65;;;;;;;4.23;88.04;97801.63;3551072;27;20073;-48
2021/04/07 01:42:53;;;;;;;14.13;9.23;;;;;;;4.18;88.41;97805.00;3551731;27;20095;-48
2021/04/07 01:44:37;;;;;;;15.38;8.95;;;;;;;4.14;88.29;97805.81;3550014;27;20050;-50
2021/04/07 01:46:18;;;;;;;15.18;9.60;;;;;;;4.09;88.45;97804.91;3553693;27;20054;-56
2021/04/07 01:48:02;;;;;;;15.20;7.70;;;;;;;4.02;88.48;97804.84;3549780;27;20039;-57
2021/04/07 01:49:43;;;;;;;14.43;8.45;;;;;;;3.98;89.02;97797.09;3551915;27;20065;-56
2021/04/07 01:51:25;;;;;;;15.07;9.63;;;;;;;3.94;89.33;97788.53;3550352;27;20050;-55
2021/04/07 01:53:07;;;;;;;15.23;9.63;;;;;;;3.94;89.70;97790.25;3550910;27;20463;-55
2021/04/07 01:54:49;;;;;;;15.43;9.10;;;;;;;3.94;89.61;97797.94;3565878;27;20050;-55
2021/04/07 01:56:31;;;;;;;15.65;8.82;;;;;;;3.93;89.28;97791.06;3554104;27;20050;-55
2021/04/07 01:58:13;;;;;;;17.65;9.80;;;;;;;3.91;89.60;97782.50;3553315;27;20411;-55
2021/04/07 01:59:54;;;;;;;15.27;9.38;;;;;;;3.88;89.26;97778.22;3552300;27;20087;-55
2021/04/07 02:01:36;;;;;;;14.00;8.48;;;;;;;3.87;89.27;97767.94;3551476;27;20051;-55
2021/04/07 02:03:17;;;;;;;16.73;9.10;;;;;;;3.84;89.25;97769.63;3550461;27;20107;-54
2021/04/07 02:04:59;;;;;;;21.85;11.15;;;;;;;3.83;89.76;97761.94;3550802;27;20049;-56
2021/04/07 02:06:41;;;;;;;14.88;9.07;;;;;;;3.83;89.89;97759.34;3554077;27;20519;-53
2021/04/07 02:08:22;;;;;;;16.48;9.45;;;;;;;3.81;89.75;97755.94;3550582;27;20043;-55
2021/04/07 02:10:08;;;;;;;13.63;8.40;;;;;;;3.78;89.44;97745.63;3553054;27;20099;-55
2021/04/07 02:11:51;;;;;;;12.95;7.93;;;;;;;3.78;89.69;97738.78;3550748;27;20042;-54
2021/04/07 02:13:33;;;;;;;16.60;9.57;;;;;;;3.78;89.98;97731.09;3549430;27;20062;-54
2021/04/07 02:15:16;;;;;;;14.02;9.13;;;;;;;3.78;90.20;97728.53;3551304;27;20415;-54
2021/04/07 02:16:59;;;;;;;16.48;9.77;;;;;;;3.78;89.79;97732.81;3549694;27;20520;-48
2021/04/07 02:18:42;;;;;;;14.02;8.77;;;;;;;3.79;90.03;97731.97;3553348;27;20053;-48
2021/04/07 02:20:24;;;;;;;16.92;9.18;;;;;;;3.82;90.15;97726.84;3549359;27;20047;-48
2021/04/07 02:22:09;;;;;;;14.82;8.32;;;;;;;3.85;90.34;97729.44;3552267;27;20423;-49
2021/04/07 02:23:50;;;;;;;13.18;8.20;;;;;;;3.88;90.50;97718.34;3549989;27;20051;-48
2021/04/07 02:25:32;;;;;;;14.75;7.90;;;;;;;3.90;90.56;97714.97;3550482;27;20050;-48
2021/04/07 02:27:15;;;;;;;12.35;7.65;;;;;;;3.91;90.31;97716.69;3552239;27;20089;-48
2021/04/07 02:28:56;;;;;;;11.82;7.38;;;;;;;3.91;90.01;97716.69;3549525;27;20103;-48
2021/04/07 02:30:38;;;;;;;11.57;7.57;;;;;;;3.91;89.42;97713.25;3552971;27;20115;-55
2021/04/07 02:32:20;;;;;;;12.55;7.47;;;;;;;3.90;89.60;97722.66;3549911;27;20047;-56
2021/04/07 02:34:01;;;;;;;13.00;7.63;;;;;;;3.92;89.49;97725.25;3551622;27;20056;-56
2021/04/07 02:35:43;;;;;;;12.75;7.32;;;;;;;3.92;89.40;97728.66;3552125;27;20053;-48
2021/04/07 02:37:25;;;;;;;14.13;7.18;;;;;;;3.92;89.32;97727.81;3551135;27;20053;-48
2021/04/07 02:39:06;;;;;;;13.25;7.93;;;;;;;3.93;89.53;97727.81;3552787;27;20058;-47
2021/04/07 02:40:49;;;;;;;11.40;6.53;;;;;;;3.94;89.48;97741.50;3551592;27;20042;-48
2021/04/07 02:42:30;;;;;;;13.82;7.57;;;;;;;3.94;89.27;97744.06;3553035;27;20046;-48
2021/04/07 02:44:11;;;;;;;9.75;5.88;;;;;;;3.93;89.01;97760.28;3549231;27;20073;-48
2021/04/07 02:45:53;;;;;;;17.42;7.43;;;;;;;3.89;88.86;97758.56;3552205;27;20401;-48
2021/04/07 02:47:34;;;;;;;13.32;7.40;;;;;;;3.87;88.89;97758.53;3549629;27;20095;-47
2021/04/07 02:49:15;;;;;;;14.45;7.63;;;;;;;3.88;89.26;97756.81;3550545;27;20046;-47
2021/04/07 02:50:57;;;;;;;14.90;7.65;;;;;;;3.86;88.94;97756.84;3552140;27;20247;-48
2021/04/07 02:52:38;;;;;;;12.32;7.28;;;;;;;3.86;89.03;97761.97;3549308;27;20076;-55
2021/04/07 02:54:20;;;;;;;12.63;7.07;;;;;;;3.84;89.08;97769.63;3552815;27;20072;-57
2021/04/07 02:56:03;;;;;;;13.82;7.70;;;;;;;3.82;88.94;97776.47;3551434;27;20046;-56
2021/04/07 02:57:44;;;;;;;9.73;6.20;;;;;;;3.78;89.15;97787.50;3552161;27;20050;-57
2021/04/07 02:59:26;;;;;;;14.90;7.25;;;;;;;3.76;89.18;97789.22;3549556;27;20071;-57
2021/04/07 03:01:07;;;;;;;11.75;6.80;;;;;;;3.75;89.15;97789.19;3551479;27;20114;-47
2021/04/07 03:02:48;;;;;;;13.10;7.13;;;;;;;3.71;88.94;97802.84;3552455;27;20082;-48
2021/04/07 03:04:29;;;;;;;13.68;7.05;;;;;;;3.69;89.16;97804.53;3551027;27;20498;-48
2021/04/07 03:06:11;;;;;;;10.98;6.43;;;;;;;3.67;89.29;97811.34;3552511;27;20085;-47
2021/04/07 03:07:52;;;;;;;12.95;6.80;;;;;;;3.64;89.09;97805.31;3549034;27;20047;-48
2021/04/07 03:09:33;;;;;;;11.70;5.95;;;;;;;3.60;88.78;97811.25;3552136;27;20057;-49
2021/04/07 03:11:15;;;;;;;12.00;6.30;;;;;;;3.58;88.82;97819.78;3549216;27;20081;-48
2021/04/07 03:12:57;;;;;;;11.43;5.25;;;;;;;3.54;88.89;97818.91;3550207;27;20046;-47
2021/04/07 03:14:38;;;;;;;9.07;4.53;;;;;;;3.53;88.69;97821.44;3550144;27;20043;-49
2021/04/07 03:16:20;;;;;;;9.73;5.13;;;;;;;3.50;88.90;97823.97;3548605;27;20507;-48
2021/04/07 03:18:01;;;;;;;12.32;5.97;;;;;;;3.45;89.03;97826.47;3552328;27;20613;-48
2021/04/07 03:19:42;;;;;;;13.38;5.55;;;;;;;3.44;88.86;97837.56;3551449;27;20054;-47
2021/04/07 03:21:24;;;;;;;9.55;5.63;;;;;;;3.40;89.14;97825.53;3552223;27;20530;-48
2021/04/07 03:23:05;;;;;;;11.68;6.65;;;;;;;3.37;89.39;97835.78;3551442;27;20047;-47
2021/04/07 03:24:48;;;;;;;11.52;5.78;;;;;;;3.36;89.61;97828.91;3549647;27;20050;-48
2021/04/07 03:26:31;;;;;;;12.27;6.38;;;;;;;3.35;89.45;97827.19;3551970;27;20492;-48
2021/04/07 03:28:12;;;;;;;11.77;6.03;;;;;;;3.36;89.70;97832.34;3549886;27;20073;-47
2021/04/07 03:29:58;;;;;;;11.95;6.25;;;;;;;3.36;89.82;97842.59;3552265;27;20061;-47
2021/04/07 03:31:39;;;;;;;9.32;5.72;;;;;;;3.38;89.65;97834.91;3548443;27;20042;-47
2021/04/07 03:33:22;;;;;;;11.13;6.28;;;;;;;3.37;89.78;97828.94;3551662;27;20051;-48
2021/04/07 03:35:05;;;;;;;8.82;5.30;;;;;;;3.37;89.26;97839.19;3551567;27;20047;-49
2021/04/07 03:36:46;;;;;;;10.63;6.13;;;;;;;3.34;89.02;97839.16;3550192;27;20140;-49
2021/04/07 03:38:28;;;;;;;7.75;4.03;;;;;;;3.30;89.17;97837.41;3550730;27;20047;-48
2021/04/07 03:40:10;;;;;;;9.68;6.22;;;;;;;3.28;89.43;97837.38;3548671;27;20376;-47
2021/04/07 03:41:52;;;;;;;11.98;6.38;;;;;;;3.27;89.44;97838.19;3552300;27;20054;-49
2021/04/07 03:43:33;;;;;;;9.77;6.05;;;;;;;3.26;89.26;97833.09;3548490;27;20069;-48
2021/04/07 03:45:15;;;;;;;8.02;5.28;;;;;;;3.25;88.79;97842.44;3553172;27;20495;-48
2021/04/07 03:46:56;;;;;;;10.82;4.90;;;;;;;3.23;88.42;97833.88;3553861;27;20089;-48
2021/04/07 03:48:38;;;;;;;8.60;5.05;;;;;;;3.22;88.55;97838.97;3551868;27;20986;-50
2021/04/07 03:50:20;;;;;;;9.07;5.00;;;;;;;3.21;88.62;97840.69;3554524;27;20088;-57
2021/04/07 03:52:01;;;;;;;7.93;4.90;;;;;;;3.22;88.85;97846.66;3550738;27;20051;-57
2021/04/07 03:53:43;;;;;;;8.45;5.35;;;;;;;3.20;88.48;97851.78;3554576;27;20086;-57
2021/04/07 03:55:24;;;;;;;6.32;4.03;;;;;;;3.20;88.51;97853.47;3552199;27;20054;-57
2021/04/07 03:57:06;;;;;;;7.43;4.75;;;;;;;3.18;88.73;97855.16;3553904;27;20042;-57
2021/04/07 03:58:47;;;;;;;6.40;4.40;;;;;;;3.17;88.66;97850.88;3551405;27;20488;-57
2021/04/07 04:00:30;;;;;;;5.30;3.00;;;;;;;3.17;88.41;97856.88;3551718;27;20533;-57
2021/04/07 04:02:11;;;;;;;5.32;4.00;;;;;;;3.15;88.29;97855.97;3553760;27;20043;-57
2021/04/07 04:03:52;;;;;;;5.63;3.95;;;;;;;3.16;88.43;97855.16;3551027;27;20095;-57
2021/04/07 04:05:34;;;;;;;5.20;3.47;;;;;;;3.15;88.08;97852.56;3554438;27;20061;-57
2021/04/07 04:07:15;;;;;;;6.72;4.65;;;;;;;3.16;88.34;97857.72;3550613;27;20544;-57
2021/04/07 04:08:56;;;;;;;6.20;4.40;;;;;;;3.17;88.23;97861.13;3553874;27;20115;-57
2021/04/07 04:10:38;;;;;;;7.10;4.45;;;;;;;3.18;88.03;97860.28;3551425;27;20050;-57
2021/04/07 04:12:20;;;;;;;5.63;3.53;;;;;;;3.18;87.80;97855.16;3551643;27;20077;-56
2021/04/07 04:14:01;;;;;;;5.60;3.10;;;;;;;3.18;87.44;97860.28;3552156;27;20046;-57
2021/04/07 04:15:45;;;;;;;4.85;3.55;;;;;;;3.17;87.62;97859.44;3553014;27;20456;-57
2021/04/07 04:17:26;;;;;;;5.38;3.28;;;;;;;3.16;87.44;97857.72;3554173;27;20439;-57
2021/04/07 04:19:08;;;;;;;5.65;3.45;;;;;;;3.17;87.79;97861.13;3550458;27;20495;-57
2021/04/07 04:20:49;;;;;;;4.60;3.60;;;;;;;3.19;87.43;97856.88;3553676;27;20058;-57
2021/04/07 04:22:31;;;;;;;5.75;3.72;;;;;;;3.19;87.58;97855.19;3552558;27;20054;-57
2021/04/07 04:24:13;;;;;;;5.45;3.35;;;;;;;3.20;87.20;97856.03;3550875;27;20039;-56
2021/04/07 04:25:54;;;;;;;3.78;2.70;;;;;;;3.20;86.65;97850.91;3553789;27;20069;-56
2021/04/07 04:27:36;;;;;;;3.58;2.58;;;;;;;3.18;86.67;97857.72;3550914;27;20054;-57
2021/04/07 04:29:17;;;;;;;4.75;3.35;;;;;;;3.17;86.99;97854.31;3553648;27;20042;-57
2021/04/07 04:30:58;;;;;;;4.80;2.85;;;;;;;3.18;86.70;97860.28;3551542;27;20046;-57
2021/04/07 04:32:40;;;;;;;5.85;2.65;;;;;;;3.17;86.64;97861.13;3550669;27;20051;-58
2021/04/07 04:34:22;;;;;;;4.68;3.20;;;;;;;3.17;86.78;97861.13;3553951;27;20122;-57
2021/04/07 04:36:03;;;;;;;4.20;3.00;;;;;;;3.17;87.22;97863.69;3550478;27;20526;-57
2021/04/07 04:37:46;;;;;;;3.25;2.53;;;;;;;3.17;86.58;97861.13;3554171;27;20054;-58
2021/04/07 04:39:27;;;;;;;4.78;2.97;;;;;;;3.18;87.11;97865.41;3550492;27;20137;-60
2021/04/07 04:41:08;;;;;;;4.15;2.80;;;;;;;3.19;86.96;97865.44;3553472;27;20070;-60
2021/04/07 04:42:50;;;;;;;4.80;2.92;;;;;;;3.18;86.67;97856.03;3551180;27;20601;-60
2021/04/07 04:44:31;;;;;;;4.80;2.83;;;;;;;3.17;86.24;97864.56;3551940;27;20046;-59
2021/04/07 04:46:13;;;;;;;5.38;3.10;;;;;;;3.15;86.20;97868.78;3552403;27;20538;-61
2021/04/07 04:47:54;;;;;;;3.33;2.65;;;;;;;3.13;86.85;97862.78;3550430;27;20464;-60
2021/04/07 04:49:36;;;;;;;4.38;3.13;;;;;;;3.12;86.75;97863.63;3554051;27;20046;-60
2021/04/07 04:51:17;;;;;;;3.92;2.90;;;;;;;3.13;86.88;97860.22;3550171;27;20582;-60
2021/04/07 04:52:59;;;;;;;4.95;3.10;;;;;;;3.12;86.72;97868.75;3553345;27;20064;-60
2021/04/07 04:54:40;;;;;;;4.03;3.03;;;;;;;3.09;86.76;97872.13;3551022;27;20612;-60
2021/04/07 04:56:22;;;;;;;6.10;3.53;;;;;;;3.12;87.15;97873.00;3550194;27;20070;-57
2021/04/07 04:58:04;;;;;;;4.25;2.97;;;;;;;3.11;87.15;97868.75;3553797;27;20042;-60
2021/04/07 04:59:45;;;;;;;6.72;4.10;;;;;;;3.13;87.35;97878.16;3550591;27;20051;-59
2021/04/07 05:01:27;;;;;;;8.60;3.90;;;;;;;3.14;87.15;97879.03;3553761;27;20534;-59
2021/04/07 05:03:08;;;;;;;6.13;3.22;;;;;;;3.15;87.21;97870.50;3551423;27;20047;-60
2021/04/07 05:04:49;;;;;;;7.15;4.35;;;;;;;3.16;87.30;97867.97;3553433;27;20118;-59
2021/04/07 05:06:33;;;;;;;4.60;3.22;;;;;;;3.16;87.74;97869.66;3550650;27;20395;-60
2021/04/07 05:08:14;;;;;;;5.57;3.30;;;;;;;3.16;87.13;97880.75;3552845;27;20046;-60
2021/04/07 05:09:56;;;;;;;5.53;3.13;;;;;;;3.13;86.80;97885.84;3552588;27;20119;-59
2021/04/07 05:11:37;;;;;;;4.40;3.47;;;;;;;3.13;87.05;97893.53;3549958;27;20077;-59
2021/04/07 05:13:19;;;;;;;5.03;3.40;;;;;;;3.14;87.50;97890.13;3552299;27;20057;-58
2021/04/07 05:15:00;;;;;;;4.95;3.13;;;;;;;3.15;87.11;97902.09;3550161;27;20063;-60
2021/04/07 05:16:41;;;;;;;4.40;2.95;;;;;;;3.16;87.36;97908.94;3553237;27;20054;-59
2021/04/07 05:18:24;;;;;;;4.45;3.00;;;;;;;3.17;87.32;97904.66;3551558;27;20055;-60
2021/04/07 05:20:07;;;;;;;5.78;3.10;;;;;;;3.18;87.04;97908.97;3550596;27;20492;-59
2021/04/07 05:21:49;;;;;;;5.35;3.90;;;;;;;3.17;87.37;97917.47;3552178;27;20125;-59
2021/04/07 05:23:30;;;;;;;5.97;3.40;;;;;;;3.17;87.37;97912.34;3549821;27;20097;-59
2021/04/07 05:25:12;;;;;;;6.57;4.00;;;;;;;3.14;87.03;97920.03;3553708;27;20050;-58
2021/04/07 05:26:54;;;;;;;6.57;3.85;;;;;;;3.08;86.93;97920.78;3549930;27;20431;-57
2021/04/07 05:28:36;;;;;;;5.57;3.50;;;;;;;3.05;87.58;97920.75;3552991;27;20047;-60
2021/04/07 05:30:19;;;;;;;6.10;3.90;;;;;;;3.05;87.46;97928.44;3552815;27;20503;-60
2021/04/07 05:32:01;;;;;;;6.63;4.22;;;;;;;3.05;87.47;97925.88;3552294;27;20072;-60
2021/04/07 05:33:44;;;;;;;8.05;4.55;;;;;;;3.06;87.72;97925.00;3567911;27;20130;-60
2021/04/07 05:35:25;;;;;;;5.75;3.78;;;;;;;3.06;87.55;97925.88;3553075;27;20046;-61
2021/04/07 05:37:06;;;;;;;5.15;3.08;;;;;;;3.04;87.04;97924.13;3552838;27;20055;-60
2021/04/07 05:38:48;;;;;;;5.38;3.70;;;;;;;3.00;86.95;97927.50;3550285;27;20047;-60
2021/04/07 05:40:29;;;;;;;5.35;3.97;;;;;;;2.96;86.89;97930.81;3551243;27;20511;-61
2021/04/07 05:42:22;;;;;;;5.93;4.00;;;;;;;2.92;87.41;97924.78;3552538;27;20046;-60
2021/04/07 05:44:05;;;;;;;5.40;3.90;;;;;;;2.89;87.24;97922.22;3549653;27;20080;-59
2021/04/07 05:45:46;;;;;;;6.57;4.22;;;;;;;2.86;87.18;97925.56;3553414;27;20564;-60
2021/04/07 05:47:28;;;;;;;5.55;4.00;;;;;;;2.84;87.27;97926.41;3551878;27;20575;-59
2021/04/07 05:49:09;;;;;;;7.43;4.50;;;;;;;2.86;87.88;97932.41;3552253;27;20529;-59
2021/04/07 05:50:53;;;;;;;7.65;4.72;;;;;;;2.89;88.30;97928.19;3551118;27;20049;-59
2021/04/07 05:52:34;;;;;;;9.50;5.50;;;;;;;2.93;87.83;97928.25;3550809;27;20423;-61
2021/04/07 05:54:15;;;;;;;8.70;5.97;;;;;;;2.96;87.53;97933.38;3551794;27;20094;-60
2021/04/07 05:55:58;;;;;;;8.93;6.07;;;;;;;2.96;87.48;97935.94;3549530;27;20050;-56
2021/04/07 05:57:39;;;;;;;10.68;6.55;;;;;;;2.97;87.39;97940.25;3553043;27;20043;-56
2021/04/07 05:59:21;;;;;;;11.73;7.18;;;;;;;3.00;87.45;97940.31;3551977;27;20043;-56
2021/04/07 06:01:02;;;;;;;13.35;7.22;;;;;;;3.02;87.59;97939.47;3552022;27;20058;-58
2021/04/07 06:02:43;;;;;;;14.00;8.80;;;;;;;3.03;87.63;97938.66;3550898;27;20050;-57
2021/04/07 06:04:25;;;;;;;13.30;7.88;;;;;;;3.06;87.72;97942.94;3549556;27;20552;-58
2021/04/07 06:06:07;;;;;;;13.13;8.18;;;;;;;3.08;88.08;97943.81;3552901;27;20057;-58
2021/04/07 06:07:49;;;;;;;12.98;9.27;;;;;;;3.12;88.14;97947.28;3548919;27;20071;-58
2021/04/07 06:09:30;;;;;;;12.65;7.93;;;;;;;3.12;87.83;97945.63;3552572;27;20065;-58
2021/04/07 06:11:12;;;;;;;13.80;8.57;;;;;;;3.14;87.35;97946.50;3549469;27;20042;-58
2021/04/07 06:12:54;;;;;;;14.65;8.85;;;;;;;3.16;87.70;97947.38;3552131;27;20452;-58
2021/04/07 06:14:36;;;;;;;12.43;8.25;;;;;;;3.14;86.84;97940.53;3550474;27;20113;-57
2021/04/07 06:16:17;;;;;;;15.25;9.65;;;;;;;3.08;86.63;97947.28;3550977;27;20050;-51
2021/04/07 06:18:01;;;;;;;16.15;9.77;;;;;;;3.03;86.96;97941.22;3551361;27;20459;-47
2021/04/07 06:19:43;;;;;;;15.10;9.20;;;;;;;2.98;86.61;97941.97;3551700;27;20046;-47
2021/04/07 06:21:24;;;;;;;15.02;9.70;;;;;;;2.95;87.40;97939.38;3553138;27;20095;-53
2021/04/07 06:23:06;;;;;;;14.00;9.02;;;;;;;2.94;87.42;97940.19;3549532;27;20051;-52
2021/04/07 06:24:48;;;;;;;17.80;10.73;;;;;;;2.96;87.74;97941.97;3551690;27;20046;-52
2021/04/07 06:26:29;;;;;;;16.15;10.88;;;;;;;3.00;87.89;97942.88;3550743;27;20084;-55
2021/04/07 06:28:13;;;;;;;13.50;8.85;;;;;;;2.98;87.15;97937.72;3549373;27;20448;-52
2021/04/07 06:29:55;;;;;;;;;;;;;;;3.01;87.33;97936.88;3552465;27;20047;-53
2021/04/07 06:31:36;;;;;;;23.75;12.80;;;;;;;3.05;87.82;97933.56;3549210;27;19930;-53
2021/04/07 06:33:22;;;;;;;23.10;11.77;;;;;;;3.08;87.82;97931.91;3552749;27;20042;-53
2021/04/07 06:35:05;;;;;;;20.00;10.65;;;;;;;3.07;87.49;97930.16;3551703;27;20047;-54
2021/04/07 06:36:47;;;;;;;20.98;10.80;;;;;;;3.13;88.06;97931.09;3551045;27;20074;-58
2021/04/07 06:38:28;;;;;;;19.67;11.32;;;;;;;3.19;88.06;97933.72;3551165;27;20478;-58
2021/04/07 06:40:10;;;;;;;18.67;10.38;;;;;;;3.25;88.14;97934.69;3549112;27;20095;-59
2021/04/07 06:41:52;;;;;;;18.65;9.85;;;;;;;3.32;87.80;97934.78;3552702;27;20070;-59
2021/04/07 06:43:34;;;;;;;14.73;9.02;;;;;;;3.38;87.79;97932.31;3550632;27;20047;-58
2021/04/07 06:45:17;;;;;;;16.17;9.00;;;;;;;3.44;87.04;97942.66;3552930;27;20070;-55
2021/04/07 06:46:58;;;;;;;12.85;8.02;;;;;;;3.39;85.98;97945.16;3549342;27;20080;-54
2021/04/07 06:48:40;;;;;;;11.27;7.40;;;;;;;3.39;86.14;97946.84;3550779;27;20042;-57
2021/04/07 06:50:23;;;;;;;12.60;7.75;;;;;;;3.34;86.40;97948.50;3551393;27;20505;-54
2021/04/07 06:52:06;;;;;;;12.00;7.45;;;;;;;3.32;86.50;97945.03;3548928;27;20043;-55
2021/04/07 06:53:50;;;;;;;12.27;7.53;;;;;;;3.31;86.50;97941.59;3552769;27;20132;-55
2021/04/07 06:55:31;;;;;;;;;;;;;;;3.34;86.88;97949.34;3549566;27;20050;-53
2021/04/07 06:57:15;;;;;;;14.73;9.05;;;;;;;3.39;87.44;97942.59;3552188;27;20363;-59
2021/04/07 06:58:58;;;;;;;;;;;;;;;3.46;87.83;97949.50;3552402;27;20051;-59
2021/04/07 07:00:41;;;;;;;9.60;5.15;;;;;;;3.44;86.47;97950.34;3549844;27;20299;-59
2021/04/07 07:02:25;;;;;;;7.85;5.90;;;;;;;3.38;86.27;97955.38;3551175;27;20103;-60
2021/04/07 07:04:06;;;;;;;8.32;5.43;;;;;;;3.37;87.32;97964.78;3550183;27;20046;-59
2021/04/07 07:05:50;;;;;;;9.55;6.50;;;;;;;3.35;87.22;97957.88;3552520;27;20567;-60
2021/04/07 07:07:52;;;;;;;9.15;5.82;;;;;;;3.36;87.56;97960.47;3549903;27;20046;-60
2021/04/07 07:09:34;;;;;;;9.18;5.25;;;;;;;3.39;86.94;97957.09;3549603;27;20047;-59
2021/04/07 07:11:16;;;;;;;5.93;4.07;;;;;;;3.36;85.84;97964.75;3551493;27;20423;-60
2021/04/07 07:12:57;;;;;;;7.07;4.05;;;;;;;3.28;85.43;97962.09;3549025;27;20051;-60
2021/04/07 07:14:39;;;;;;;7.10;4.22;;;;;;;3.22;85.64;97969.66;3552136;27;20079;-60
2021/04/07 07:16:28;;;;;;;7.97;4.30;;;;;;;3.19;86.17;97973.06;3548641;27;20167;-61
2021/04/07 07:18:09;;;;;;;7.22;3.80;;;;;;;3.14;86.07;97974.69;3551334;27;20061;-59
2021/04/07 07:19:51;;;;;;;7.50;5.00;;;;;;;3.10;86.12;97972.91;3552026;27;20459;-59
2021/04/07 07:21:32;;;;;;;6.10;4.15;;;;;;;3.06;85.87;97979.66;3552813;27;20078;-59
2021/04/07 07:23:21;;;;;;;8.65;4.65;;;;;;;3.04;86.06;97978.78;3553535;27;20050;-59
2021/04/07 07:25:07;;;;;;;5.55;3.67;;;;;;;3.01;86.07;97985.56;3551673;27;20152;-52
2021/04/07 07:26:49;;;;;;;6.30;4.20;;;;;;;2.96;86.52;97982.06;3554832;27;20465;-55
2021/04/07 07:28:39;;;;;;;7.78;5.07;;;;;;;2.97;87.03;97989.75;3552525;27;20061;-54
2021/04/07 07:30:21;;;;;;;7.47;5.07;;;;;;;2.98;87.52;97983.81;3551980;27;20083;-54
2021/04/07 07:32:05;;;;;;;7.72;4.55;;;;;;;3.01;87.85;97976.19;3554238;27;20529;-49
2021/04/07 07:33:46;;;;;;;5.90;4.05;;;;;;;3.01;87.35;97981.31;3551473;27;20123;-55
2021/04/07 07:35:28;;;;;;;6.50;4.18;;;;;;;3.06;87.50;97978.81;3554780;27;20544;-52
2021/04/07 07:37:09;;;;;;;7.07;4.50;;;;;;;3.13;88.20;97977.22;3550993;27;20066;-51
2021/04/07 07:38:52;;;;;;;10.27;5.22;;;;;;;3.20;88.55;97972.19;3554290;27;20057;-55
2021/04/07 07:40:33;;;;;;;7.18;4.72;;;;;;;3.29;87.91;97971.47;3552764;27;20051;-54
2021/04/07 07:42:14;;;;;;;8.35;4.43;;;;;;;3.35;87.54;97963.88;3552616;27;20423;-60
2021/04/07 07:43:56;;;;;;;6.57;4.40;;;;;;;3.42;86.64;97965.69;3553226;27;20053;-58
2021/04/07 07:45:40;;;;;;;9.70;4.97;;;;;;;3.50;87.04;97967.50;3550948;27;20087;-58
2021/04/07 07:47:28;;;;;;;5.72;3.80;;;;;;;3.59;87.19;97963.34;3554701;27;20050;-57
2021/04/07 07:49:14;;;;;;;6.22;3.53;;;;;;;3.71;86.70;97956.69;3552211;27;20411;-56
2021/04/07 07:50:55;;;;;;;6.85;3.15;;;;;;;3.76;86.31;97962.75;3552429;27;20090;-58
2021/04/07 07:52:37;;;;;;;5.13;3.55;;;;;;;3.76;85.32;97953.34;3553306;27;20429;-58
2021/04/07 07:54:20;;;;;;;5.03;3.60;;;;;;;3.77;85.58;97957.63;3552334;27;20047;-57
2021/04/07 07:56:02;;;;;;;6.10;3.50;;;;;;;3.76;85.62;97950.78;3554338;27;20507;-56
2021/04/07 07:57:52;;;;;;;5.65;3.80;;;;;;;3.76;84.77;97948.19;3550931;27;20047;-57
2021/04/07 07:59:33;;;;;;;4.65;3.10;;;;;;;3.71;84.07;97949.84;3553955;27;20416;-58
2021/04/07 08:01:17;;;;;;;6.15;3.30;;;;;;;3.64;83.70;97948.03;3551741;27;20046;-48
2021/04/07 08:03:07;;;;;;;6.95;4.28;;;;;;;3.60;84.92;97949.72;3551610;27;20092;-48